| Date | Time | Temp. (oF) | Dew Point (oF) | Rel. Hum. (%) | Press. (in.) | Wind Dir. | Wind Speed (mph) | Hourly Rainfall (in.) |
|
|---|---|---|---|---|---|---|---|---|---|
| 1 | 12/25 | 00:00 | 34 | 28 | 81 | 29.90 | NW | 1 | 0.00 |
| 2 | 12/24 | 23:00 | 35 | 29 | 80 | 29.91 | WNW | 6 | 0.00 |
| 3 | 12/24 | 22:00 | 38 | 33 | 84 | 29.90 | WNW | 6 | 0.00 |
| 4 | 12/24 | 21:00 | 39 | 35 | 88 | 29.89 | W | 11 | 0.00 |
| 5 | 12/24 | 20:00 | 39 | 36 | 89 | 29.88 | SSW | 3 | 0.00 |
| 6 | 12/24 | 19:00 | 39 | 37 | 93 | 29.86 | NW | 4 | 0.00 |
| 7 | 12/24 | 18:00 | 40 | 38 | 93 | 29.83 | WNW | 7 | 0.00 |
| 8 | 12/24 | 17:00 | 41 | 39 | 96 | 29.79 | WNW | 8 | 0.00 |
| 9 | 12/24 | 16:00 | 41 | 41 | 100 | 29.76 | W | 13 | 0.01 |
| 10 | 12/24 | 15:00 | 42 | 41 | 100 | 29.75 | WNW | 6 | 0.02 |
| 11 | 12/24 | 14:00 | 44 | 44 | 100 | 29.71 | WNW | 8 | 0.01 |
| 12 | 12/24 | 13:00 | 45 | 45 | 100 | 29.69 | W | 10 | 0.05 |
| 13 | 12/24 | 12:00 | 55 | 54 | 100 | 29.65 | SSW | 6 | 0.03 |
| 14 | 12/24 | 11:00 | 56 | 55 | 100 | 29.70 | SE | 7 | 0.17 |
| 15 | 12/24 | 10:00 | 56 | 55 | 100 | 29.72 | ESE | 6 | 0.00 |
| 16 | 12/24 | 09:00 | 55 | 54 | 100 | 29.75 | SSE | 5 | 0.01 |
| 17 | 12/24 | 08:00 | 53 | 53 | 100 | 29.78 | SE | 4 | 0.00 |
| 18 | 12/24 | 07:00 | 53 | 53 | 100 | 29.78 | ESE | 1 | 0.01 |
| 19 | 12/24 | 06:00 | 53 | 53 | 100 | 29.81 | SSE | 5 | 0.00 |
| 20 | 12/24 | 05:00 | 52 | 51 | 100 | 29.83 | SSE | 7 | 0.00 |
| 21 | 12/24 | 04:00 | 51 | 50 | 100 | 29.85 | ESE | 5 | 0.03 |
| 22 | 12/24 | 03:00 | 52 | 51 | 100 | 29.89 | SE | 9 | 0.09 |
| 23 | 12/24 | 02:00 | 50 | 50 | 100 | 29.92 | S | 7 | 0.06 |
| 24 | 12/24 | 01:00 | 50 | 50 | 100 | 29.94 | SSE | 7 | 0.03 |